createdAt,value
2023-05-12T00:01:33.808Z,20.30
2023-05-12T00:04:01.225Z,20.20
2023-05-12T00:06:28.372Z,20.20
2023-05-12T00:08:55.400Z,20.20
2023-05-12T00:11:22.441Z,20.20
2023-05-12T00:13:49.597Z,20.20
2023-05-12T00:16:18.905Z,20.20
2023-05-12T00:18:46.014Z,20.20
2023-05-12T00:21:13.145Z,20.10
2023-05-12T00:23:40.135Z,20.10
2023-05-12T00:26:07.364Z,20.10
2023-05-12T00:28:34.914Z,20.10
2023-05-12T00:31:05.434Z,20.10
2023-05-12T00:33:32.775Z,20.10
2023-05-12T00:36:04.166Z,20.00
2023-05-12T00:38:31.238Z,20.00
2023-05-12T00:40:58.292Z,20.00
2023-05-12T00:43:25.936Z,20.00
2023-05-12T00:45:53.488Z,20.00
2023-05-12T00:48:20.610Z,19.90
2023-05-12T00:50:47.624Z,19.90
2023-05-12T00:53:14.722Z,19.90
2023-05-12T00:55:42.195Z,19.90
2023-05-12T00:58:09.344Z,19.90
2023-05-12T01:00:36.562Z,19.80
2023-05-12T01:03:04.692Z,19.80
2023-05-12T01:05:56.472Z,19.80
2023-05-12T01:08:24.674Z,19.80
2023-05-12T01:10:52.953Z,19.80
2023-05-12T01:13:20.002Z,19.80
2023-05-12T01:15:50.064Z,19.80
2023-05-12T01:18:21.687Z,19.80
2023-05-12T01:20:50.347Z,19.70
2023-05-12T01:23:20.338Z,19.70
2023-05-12T01:25:50.226Z,19.70
2023-05-12T01:28:18.059Z,19.70
2023-05-12T01:30:45.485Z,19.70
2023-05-12T01:33:14.474Z,19.70
2023-05-12T01:35:42.293Z,19.60
2023-05-12T01:38:10.610Z,19.60
2023-05-12T01:40:40.027Z,19.50
2023-05-12T01:43:07.905Z,19.50
2023-05-12T01:45:37.053Z,19.50
2023-05-12T01:48:04.348Z,19.40
2023-05-12T01:50:31.496Z,19.40
2023-05-12T01:52:59.243Z,19.30
2023-05-12T01:55:27.828Z,19.30
2023-05-12T01:57:58.450Z,19.30
2023-05-12T02:00:25.678Z,19.20
2023-05-12T02:02:55.972Z,19.20
2023-05-12T02:05:23.166Z,19.20
2023-05-12T02:07:51.253Z,19.20
2023-05-12T02:10:18.740Z,19.10
2023-05-12T02:12:46.110Z,19.10
2023-05-12T02:15:13.547Z,19.10
2023-05-12T02:17:45.952Z,19.10
2023-05-12T02:20:14.810Z,19.10
2023-05-12T02:22:43.351Z,19.10
2023-05-12T02:25:10.319Z,19.00
2023-05-12T02:27:37.234Z,19.00
2023-05-12T02:30:05.942Z,19.00
2023-05-12T02:32:33.772Z,19.00
2023-05-12T02:35:01.217Z,18.90
2023-05-12T02:37:28.557Z,18.90
2023-05-12T02:39:55.515Z,18.90
2023-05-12T02:42:22.398Z,18.90
2023-05-12T02:44:49.377Z,18.90
2023-05-12T02:47:16.291Z,18.90
2023-05-12T02:49:43.295Z,18.80
2023-05-12T02:52:10.389Z,18.80
2023-05-12T02:54:37.381Z,18.80
2023-05-12T02:57:05.870Z,18.80
2023-05-12T02:59:32.942Z,18.80
2023-05-12T03:01:59.991Z,18.70
2023-05-12T03:04:27.410Z,18.80
2023-05-12T03:06:54.536Z,18.70
2023-05-12T03:09:21.774Z,18.70
2023-05-12T03:11:48.841Z,18.70
2023-05-12T03:14:15.767Z,18.70
2023-05-12T03:16:42.974Z,18.60
2023-05-12T03:19:10.325Z,18.60
2023-05-12T03:21:37.591Z,18.60
2023-05-12T03:24:04.876Z,18.60
2023-05-12T03:26:31.836Z,18.60
2023-05-12T03:28:59.779Z,18.60
2023-05-12T03:31:27.263Z,18.50
2023-05-12T03:33:54.271Z,18.50
2023-05-12T03:36:22.286Z,18.50
2023-05-12T03:38:49.254Z,18.50
2023-05-12T03:41:17.232Z,18.50
2023-05-12T03:43:44.291Z,18.50
2023-05-12T03:46:12.554Z,18.50
2023-05-12T03:48:40.092Z,18.50
2023-05-12T03:51:07.681Z,18.50
2023-05-12T03:53:34.730Z,18.50
2023-05-12T03:56:08.158Z,18.50
2023-05-12T03:58:35.072Z,18.50
2023-05-12T04:01:04.134Z,18.50
2023-05-12T04:03:32.234Z,18.40
2023-05-12T04:06:03.815Z,18.40
2023-05-12T04:08:31.490Z,18.40
2023-05-12T04:10:59.435Z,18.40
2023-05-12T04:13:27.658Z,18.40
2023-05-12T04:16:01.111Z,18.30
2023-05-12T04:18:29.700Z,18.30
2023-05-12T04:20:57.398Z,18.30
2023-05-12T04:23:24.533Z,18.30
2023-05-12T04:25:51.481Z,18.20
2023-05-12T04:28:18.703Z,18.20
2023-05-12T04:30:46.156Z,18.20
2023-05-12T04:33:13.605Z,18.20
2023-05-12T04:35:41.137Z,18.30
2023-05-12T04:38:10.874Z,18.30
2023-05-12T04:40:38.424Z,18.30
2023-05-12T04:43:05.994Z,18.40
2023-05-12T04:45:34.776Z,18.30
2023-05-12T04:48:02.610Z,18.30
2023-05-12T04:50:29.946Z,18.40
2023-05-12T04:52:57.054Z,18.40
2023-05-12T04:55:24.717Z,18.40
2023-05-12T04:57:52.232Z,18.40
2023-05-12T05:00:19.849Z,18.40
2023-05-12T05:02:47.618Z,18.40
2023-05-12T05:05:15.143Z,18.40
2023-05-12T05:07:42.232Z,18.40
2023-05-12T05:10:09.789Z,18.40
2023-05-12T05:12:39.015Z,18.40
2023-05-12T05:15:06.887Z,18.40
2023-05-12T05:17:34.607Z,18.40
2023-05-12T05:20:11.441Z,18.40
2023-05-12T05:22:39.917Z,18.40
2023-05-12T05:25:08.506Z,18.40
2023-05-12T05:27:36.531Z,18.40
2023-05-12T05:30:09.336Z,18.50
2023-05-12T05:32:40.405Z,18.50
2023-05-12T05:35:08.483Z,18.50
2023-05-12T05:37:39.244Z,18.50
2023-05-12T05:40:07.862Z,18.50
2023-05-12T05:42:34.866Z,18.50
2023-05-12T05:45:02.055Z,18.50
2023-05-12T05:47:29.183Z,18.50
2023-05-12T05:49:56.246Z,18.60
2023-05-12T05:52:24.506Z,18.60
2023-05-12T05:54:51.889Z,18.60
2023-05-12T05:57:20.195Z,18.70
2023-05-12T05:59:47.420Z,18.70
2023-05-12T06:02:16.670Z,18.80
2023-05-12T06:04:43.673Z,18.80
2023-05-12T06:07:10.672Z,18.90
2023-05-12T06:09:37.706Z,19.00
2023-05-12T06:12:06.618Z,19.10
2023-05-12T06:14:33.592Z,19.10
2023-05-12T06:17:00.537Z,19.20
2023-05-12T06:19:27.895Z,19.30
2023-05-12T06:21:55.544Z,19.40
2023-05-12T06:24:22.514Z,19.50
2023-05-12T06:26:49.428Z,19.60
2023-05-12T06:29:16.580Z,19.70
2023-05-12T06:31:43.612Z,19.80
2023-05-12T06:34:10.686Z,19.90
2023-05-12T06:36:37.788Z,20.00
2023-05-12T06:39:04.886Z,20.10
2023-05-12T06:41:33.719Z,20.20
2023-05-12T06:44:02.375Z,20.30
2023-05-12T06:46:29.578Z,20.40
2023-05-12T06:48:56.514Z,20.50
2023-05-12T06:51:23.643Z,20.60
2023-05-12T06:53:50.766Z,20.80
2023-05-12T06:56:18.035Z,20.90
2023-05-12T06:58:45.526Z,21.10
2023-05-12T07:01:12.525Z,21.30
2023-05-12T07:03:39.710Z,21.50
2023-05-12T07:06:07.133Z,21.60
2023-05-12T07:08:34.181Z,21.80
2023-05-12T07:11:01.630Z,22.10
2023-05-12T07:13:28.633Z,22.30
2023-05-12T07:15:55.812Z,22.50
2023-05-12T07:18:22.953Z,22.60
2023-05-12T07:20:50.046Z,22.80
2023-05-12T07:23:17.154Z,22.90
2023-05-12T07:25:44.372Z,23.10
2023-05-12T07:28:11.590Z,23.20
2023-05-12T07:30:40.036Z,23.30
2023-05-12T07:33:08.691Z,23.50
2023-05-12T07:35:35.803Z,23.60
2023-05-12T07:38:04.017Z,23.70
2023-05-12T07:40:32.207Z,23.90
2023-05-12T07:43:00.830Z,24.10
2023-05-12T07:45:28.227Z,24.20
2023-05-12T07:47:55.409Z,24.40
2023-05-12T07:50:22.442Z,24.50
2023-05-12T07:52:51.053Z,24.80
2023-05-12T07:55:20.352Z,24.90
2023-05-12T07:57:49.285Z,25.20
2023-05-12T08:00:16.411Z,25.30
2023-05-12T08:02:43.994Z,25.50
2023-05-12T08:05:11.607Z,25.60
2023-05-12T08:07:41.236Z,25.80
2023-05-12T08:10:10.338Z,26.00
2023-05-12T08:12:38.759Z,26.10
2023-05-12T08:15:06.512Z,26.30
2023-05-12T08:17:35.188Z,26.40
2023-05-12T08:20:07.088Z,26.50
2023-05-12T08:22:34.110Z,26.70
2023-05-12T08:25:01.078Z,26.80
2023-05-12T08:27:29.768Z,26.90
2023-05-12T08:29:57.695Z,27.00
2023-05-12T08:32:25.932Z,27.00
2023-05-12T08:34:52.995Z,27.00
2023-05-12T08:37:20.941Z,27.10
2023-05-12T08:39:47.899Z,27.10
2023-05-12T08:42:20.818Z,27.20
2023-05-12T08:44:47.969Z,27.20
2023-05-12T08:47:18.669Z,27.30
2023-05-12T08:49:48.549Z,27.40
2023-05-12T08:52:21.724Z,27.60
2023-05-12T08:54:56.012Z,27.70
2023-05-12T08:57:25.632Z,27.80
2023-05-12T08:59:59.471Z,27.80
2023-05-12T09:02:37.581Z,27.90
2023-05-12T09:05:10.004Z,28.00
2023-05-12T09:07:45.118Z,28.10
2023-05-12T09:10:25.920Z,28.20
2023-05-12T09:13:22.369Z,28.30
2023-05-12T09:15:53.349Z,28.30
2023-05-12T09:18:20.585Z,28.50
2023-05-12T09:20:47.743Z,28.60
2023-05-12T09:23:19.687Z,28.80
2023-05-12T09:25:47.195Z,28.90
2023-05-12T09:28:14.785Z,29.10
2023-05-12T09:30:42.973Z,29.20
2023-05-12T09:33:12.223Z,29.30
2023-05-12T09:35:45.126Z,29.40
2023-05-12T09:38:13.993Z,29.50
2023-05-12T09:40:43.351Z,29.70
2023-05-12T09:43:13.623Z,29.80
2023-05-12T09:45:44.122Z,29.80
2023-05-12T09:48:14.738Z,29.80
2023-05-12T09:50:52.881Z,29.80
2023-05-12T09:53:23.024Z,29.80
2023-05-12T09:55:50.271Z,29.80
2023-05-12T09:58:20.436Z,29.80
2023-05-12T10:03:18.667Z,29.90
2023-05-12T10:05:52.166Z,29.80
2023-05-12T10:08:30.793Z,29.90
2023-05-12T10:13:51.090Z,29.90
2023-05-12T10:16:18.855Z,29.90
2023-05-12T10:18:46.834Z,30.00
2023-05-12T10:21:15.110Z,29.90
2023-05-12T10:23:44.400Z,29.90
2023-05-12T10:26:12.095Z,29.80
2023-05-12T10:28:39.044Z,29.70
2023-05-12T10:31:07.724Z,29.70
2023-05-12T10:33:34.846Z,29.50
2023-05-12T10:36:02.081Z,29.50
2023-05-12T10:38:37.325Z,29.50
2023-05-12T10:41:06.665Z,29.50
2023-05-12T10:43:43.251Z,29.50
2023-05-12T10:46:18.781Z,29.40
2023-05-12T10:48:56.407Z,29.40
2023-05-12T10:51:43.180Z,29.40
2023-05-12T10:54:11.735Z,29.20
2023-05-12T10:56:40.167Z,29.20
2023-05-12T10:59:24.792Z,29.10
2023-05-12T11:02:04.062Z,29.10
2023-05-12T11:04:57.287Z,29.10
2023-05-12T11:07:28.054Z,29.00
2023-05-12T11:10:00.170Z,29.00
2023-05-12T11:12:32.690Z,28.90
2023-05-12T11:15:01.652Z,28.90
2023-05-12T11:17:29.142Z,28.80
2023-05-12T11:19:56.910Z,28.70
2023-05-12T11:22:24.471Z,28.50
2023-05-12T11:24:52.985Z,28.40
2023-05-12T11:27:23.192Z,28.30
2023-05-12T11:30:01.861Z,28.30
2023-05-12T11:32:29.836Z,28.20
2023-05-12T11:35:11.844Z,28.20
2023-05-12T11:37:41.015Z,28.20
2023-05-12T11:40:22.082Z,28.10
2023-05-12T11:42:55.985Z,28.20
2023-05-12T11:45:30.681Z,28.20
2023-05-12T11:48:07.964Z,28.20
2023-05-12T11:50:39.180Z,28.30
2023-05-12T11:53:15.138Z,28.30
2023-05-12T11:55:54.497Z,28.30
2023-05-12T11:58:30.794Z,28.20
2023-05-12T12:01:12.216Z,28.20
2023-05-12T12:03:50.717Z,28.20
2023-05-12T12:06:20.839Z,28.20
2023-05-12T12:08:57.569Z,28.30
2023-05-12T12:11:30.688Z,28.40
2023-05-12T12:13:58.012Z,28.40
2023-05-12T12:16:26.547Z,28.40
2023-05-12T12:18:53.934Z,28.50
2023-05-12T12:21:23.155Z,28.60
2023-05-12T12:23:51.899Z,28.60
2023-05-12T12:26:21.114Z,28.60
2023-05-12T12:28:48.398Z,28.60
2023-05-12T12:31:16.305Z,28.50
2023-05-12T12:33:43.465Z,28.50
2023-05-12T12:36:10.628Z,28.50
2023-05-12T12:38:38.098Z,28.40
2023-05-12T12:41:06.703Z,28.40
2023-05-12T12:43:33.739Z,28.40
2023-05-12T12:46:00.791Z,28.30
2023-05-12T12:48:28.886Z,28.20
2023-05-12T12:50:56.379Z,28.20
2023-05-12T12:53:23.649Z,28.10
2023-05-12T12:55:51.386Z,28.10
2023-05-12T12:58:18.391Z,28.10
2023-05-12T13:00:45.588Z,28.10
2023-05-12T13:03:12.743Z,28.10
2023-05-12T13:05:40.046Z,28.00
2023-05-12T13:08:07.366Z,28.10
2023-05-12T13:10:35.253Z,28.00
2023-05-12T13:13:02.396Z,28.00
2023-05-12T13:15:32.421Z,28.10
2023-05-12T13:17:59.627Z,28.10
2023-05-12T13:20:26.938Z,28.10
2023-05-12T13:22:53.999Z,28.10
2023-05-12T13:25:21.279Z,28.20
2023-05-12T13:27:48.592Z,28.20
2023-05-12T13:30:15.753Z,28.20
2023-05-12T13:32:42.853Z,28.20
2023-05-12T13:35:10.682Z,28.20
2023-05-12T13:37:37.929Z,28.20
2023-05-12T13:40:05.379Z,28.20
2023-05-12T13:42:32.640Z,28.20
2023-05-12T13:44:59.626Z,28.20
2023-05-12T13:47:27.266Z,28.10
2023-05-12T13:49:56.549Z,28.00
2023-05-12T13:52:23.757Z,27.90
2023-05-12T13:54:51.249Z,27.80
2023-05-12T13:57:18.383Z,27.70
2023-05-12T13:59:45.414Z,27.70
2023-05-12T14:02:13.955Z,27.60
2023-05-12T14:04:41.016Z,27.40
2023-05-12T14:07:08.903Z,27.30
2023-05-12T14:09:38.411Z,27.20
2023-05-12T14:12:06.276Z,27.10
2023-05-12T14:14:33.431Z,27.00
2023-05-12T14:17:00.392Z,26.90
2023-05-12T14:19:27.551Z,26.90
2023-05-12T14:21:54.449Z,26.80
2023-05-12T14:24:21.603Z,26.90
2023-05-12T14:26:48.671Z,26.80
2023-05-12T14:29:15.634Z,26.80
2023-05-12T14:31:42.734Z,26.90
2023-05-12T14:34:10.111Z,26.90
2023-05-12T14:36:37.151Z,26.90
2023-05-12T14:39:04.504Z,27.00
2023-05-12T14:41:31.512Z,27.00
2023-05-12T14:43:59.420Z,27.00
2023-05-12T14:46:26.848Z,27.00
2023-05-12T14:48:53.943Z,27.00
2023-05-12T14:51:20.898Z,26.90
2023-05-12T14:53:48.115Z,26.80
2023-05-12T14:56:15.292Z,26.70
2023-05-12T14:58:42.269Z,26.60
2023-05-12T15:01:10.596Z,26.50
2023-05-12T15:03:38.640Z,26.40
2023-05-12T15:06:07.860Z,26.30
2023-05-12T15:08:35.355Z,26.30
2023-05-12T15:11:02.362Z,26.20
2023-05-12T15:13:29.441Z,26.10
2023-05-12T15:15:57.101Z,26.00
2023-05-12T15:18:24.438Z,26.00
2023-05-12T15:20:51.945Z,25.90
2023-05-12T15:23:19.148Z,25.90
2023-05-12T15:25:46.158Z,25.80
2023-05-12T15:28:13.056Z,25.80
2023-05-12T15:30:40.167Z,25.70
2023-05-12T15:33:07.289Z,25.70
2023-05-12T15:35:34.610Z,25.70
2023-05-12T15:38:01.696Z,25.70
2023-05-12T15:40:31.296Z,25.70
2023-05-12T15:42:58.564Z,25.70
2023-05-12T15:45:25.544Z,25.70
2023-05-12T15:47:52.524Z,25.70
2023-05-12T15:50:22.785Z,25.70
2023-05-12T15:52:50.519Z,25.70
2023-05-12T15:55:18.089Z,25.70
2023-05-12T15:57:45.205Z,25.70
2023-05-12T16:00:13.203Z,25.70
2023-05-12T16:02:40.880Z,25.70
2023-05-12T16:05:09.419Z,25.70
2023-05-12T16:07:36.411Z,25.70
2023-05-12T16:10:03.788Z,25.70
2023-05-12T16:12:31.263Z,25.70
2023-05-12T16:14:58.220Z,25.60
2023-05-12T16:17:25.436Z,25.60
2023-05-12T16:19:54.144Z,25.60
2023-05-12T16:22:21.328Z,25.60
2023-05-12T16:24:48.743Z,25.60
2023-05-12T16:27:15.965Z,25.60
2023-05-12T16:29:47.426Z,25.60
2023-05-12T16:32:14.501Z,25.50
2023-05-12T16:34:41.620Z,25.50
2023-05-12T16:37:08.732Z,25.50
2023-05-12T16:39:36.862Z,25.50
2023-05-12T16:42:04.095Z,25.50
2023-05-12T16:44:31.155Z,25.50
2023-05-12T16:46:58.070Z,25.50
2023-05-12T16:49:25.062Z,25.40
2023-05-12T16:51:52.022Z,25.40
2023-05-12T16:54:19.002Z,25.30
2023-05-12T16:56:46.244Z,25.30
2023-05-12T16:59:14.124Z,25.30
2023-05-12T17:01:41.139Z,25.20
2023-05-12T17:04:12.017Z,25.20
2023-05-12T17:06:38.929Z,25.20
2023-05-12T17:09:05.995Z,25.20
2023-05-12T17:11:32.945Z,25.10
2023-05-12T17:14:01.025Z,25.10
2023-05-12T17:16:28.760Z,25.10
2023-05-12T17:21:26.665Z,25.00
2023-05-12T17:23:53.946Z,25.00
2023-05-12T17:26:21.089Z,25.00
2023-05-12T17:28:48.057Z,24.90
2023-05-12T17:31:15.027Z,24.80
2023-05-12T17:33:42.095Z,24.80
2023-05-12T17:36:12.858Z,24.80
2023-05-12T17:38:41.091Z,24.70
2023-05-12T17:41:08.852Z,24.70
2023-05-12T17:43:35.955Z,24.60
2023-05-12T17:46:04.879Z,24.60
2023-05-12T17:48:33.500Z,24.60
2023-05-12T17:51:03.200Z,24.50
2023-05-12T17:53:31.357Z,24.50
2023-05-12T17:55:59.045Z,24.40
2023-05-12T17:58:26.444Z,24.40
2023-05-12T18:00:53.916Z,24.30
2023-05-12T18:03:24.233Z,24.20
2023-05-12T18:05:53.464Z,24.20
2023-05-12T18:08:20.578Z,24.10
2023-05-12T18:10:47.915Z,24.00
2023-05-12T18:13:15.686Z,24.00
2023-05-12T18:15:42.898Z,23.90
2023-05-12T18:18:12.427Z,23.90
2023-05-12T18:20:41.118Z,23.80
2023-05-12T18:23:08.493Z,23.70
2023-05-12T18:25:37.060Z,23.70
2023-05-12T18:28:04.121Z,23.60
2023-05-12T18:30:31.326Z,23.60
2023-05-12T18:32:58.497Z,23.50
2023-05-12T18:35:27.146Z,23.50
2023-05-12T18:37:54.633Z,23.50
2023-05-12T18:40:21.977Z,23.40
2023-05-12T18:42:48.935Z,23.40
2023-05-12T18:45:15.908Z,23.40
2023-05-12T18:47:43.838Z,23.40
2023-05-12T18:50:12.173Z,23.40
2023-05-12T18:52:39.151Z,23.30
2023-05-12T18:55:06.861Z,23.30
2023-05-12T18:57:34.053Z,23.30
2023-05-12T19:00:01.329Z,23.30
2023-05-12T19:02:28.467Z,23.30
2023-05-12T19:04:55.872Z,23.30
2023-05-12T19:07:24.104Z,23.30
2023-05-12T19:09:52.220Z,23.20
2023-05-12T19:12:20.220Z,23.20
2023-05-12T19:14:47.294Z,23.20
2023-05-12T19:17:14.276Z,23.10
2023-05-12T19:19:41.245Z,23.10
2023-05-12T19:22:08.464Z,23.00
2023-05-12T19:24:35.629Z,23.00
2023-05-12T19:27:02.826Z,23.00
2023-05-12T19:29:30.777Z,23.00
2023-05-12T19:31:57.856Z,23.00
2023-05-12T19:34:25.174Z,22.90
2023-05-12T19:36:53.194Z,22.80
2023-05-12T19:39:21.229Z,22.80
2023-05-12T19:41:48.386Z,22.70
2023-05-12T19:44:15.413Z,22.70
2023-05-12T19:46:43.638Z,22.60
2023-05-12T19:49:10.545Z,22.60
2023-05-12T19:51:37.627Z,22.50
2023-05-12T19:54:06.493Z,22.50
2023-05-12T19:56:33.709Z,22.40
2023-05-12T19:59:00.747Z,22.40
2023-05-12T20:01:27.840Z,22.30
2023-05-12T20:03:54.932Z,22.30
2023-05-12T20:06:22.743Z,22.20
2023-05-12T20:08:49.762Z,22.20
2023-05-12T20:11:16.861Z,22.10
2023-05-12T20:13:43.769Z,22.00
2023-05-12T20:16:11.107Z,22.00
2023-05-12T20:18:38.086Z,21.90
2023-05-12T20:21:05.257Z,21.90
2023-05-12T20:23:32.323Z,21.80
2023-05-12T20:25:59.870Z,21.80
2023-05-12T20:28:26.987Z,21.70
2023-05-12T20:30:54.072Z,21.60
2023-05-12T20:33:21.285Z,21.60
2023-05-12T20:35:48.572Z,21.50
2023-05-12T20:38:15.917Z,21.40
2023-05-12T20:40:42.991Z,21.40
2023-05-12T20:43:10.107Z,21.30
2023-05-12T20:45:37.776Z,21.30
2023-05-12T20:48:05.174Z,21.20
2023-05-12T20:50:32.214Z,21.10
2023-05-12T20:52:59.438Z,21.10
2023-05-12T20:55:26.543Z,21.00
2023-05-12T20:57:53.560Z,20.90
2023-05-12T21:00:22.178Z,20.80
2023-05-12T21:02:52.277Z,20.80
2023-05-12T21:05:20.701Z,20.70
2023-05-12T21:07:48.112Z,20.60
2023-05-12T21:10:15.109Z,20.60
2023-05-12T21:12:42.217Z,20.50
2023-05-12T21:15:13.051Z,20.40
2023-05-12T21:17:41.083Z,20.40
2023-05-12T21:20:10.601Z,20.40
2023-05-12T21:22:38.523Z,20.30
2023-05-12T21:25:06.255Z,20.30
2023-05-12T21:27:33.297Z,20.20
2023-05-12T21:30:00.264Z,20.10
2023-05-12T21:32:27.980Z,20.10
2023-05-12T21:34:55.091Z,20.10
2023-05-12T21:37:22.188Z,20.00
2023-05-12T21:39:49.561Z,20.00
2023-05-12T21:42:17.053Z,19.90
2023-05-12T21:44:44.133Z,19.80
2023-05-12T21:47:11.147Z,19.80
2023-05-12T21:49:38.536Z,19.70
2023-05-12T21:52:05.737Z,19.60
2023-05-12T21:54:33.806Z,19.60
2023-05-12T21:57:01.213Z,19.50
2023-05-12T21:59:29.255Z,19.50
2023-05-12T22:01:56.640Z,19.40
2023-05-12T22:04:23.835Z,19.40
2023-05-12T22:06:51.916Z,19.40
2023-05-12T22:09:19.603Z,19.30
2023-05-12T22:11:47.804Z,19.20
2023-05-12T22:14:16.719Z,19.20
2023-05-12T22:16:44.028Z,19.10
2023-05-12T22:19:12.129Z,19.10
2023-05-12T22:21:39.209Z,19.00
2023-05-12T22:24:06.518Z,19.00
2023-05-12T22:26:33.409Z,18.90
2023-05-12T22:29:01.315Z,18.90
2023-05-12T22:31:28.317Z,18.90
2023-05-12T22:33:55.432Z,18.80
2023-05-12T22:36:22.409Z,18.80
2023-05-12T22:38:50.228Z,18.80
2023-05-12T22:41:17.535Z,18.80
2023-05-12T22:43:44.505Z,18.70
2023-05-12T22:46:11.421Z,18.70
2023-05-12T22:48:39.400Z,18.70
2023-05-12T22:51:06.835Z,18.60
2023-05-12T22:53:36.147Z,18.60
2023-05-12T22:56:03.916Z,18.60
2023-05-12T22:58:31.031Z,18.50
2023-05-12T23:00:58.208Z,18.50
2023-05-12T23:03:25.238Z,18.40
2023-05-12T23:05:52.284Z,18.40
2023-05-12T23:08:19.302Z,18.30
2023-05-12T23:10:46.358Z,18.30
2023-05-12T23:13:13.317Z,18.20
2023-05-12T23:15:40.380Z,18.10
2023-05-12T23:18:07.447Z,18.20
2023-05-12T23:20:35.133Z,18.10
2023-05-12T23:23:02.150Z,18.10
2023-05-12T23:25:29.124Z,18.10
2023-05-12T23:27:56.296Z,18.00
2023-05-12T23:30:23.770Z,18.00
2023-05-12T23:32:51.119Z,18.00
2023-05-12T23:35:18.218Z,17.90
2023-05-12T23:37:45.223Z,17.90
2023-05-12T23:40:12.438Z,17.90
2023-05-12T23:42:39.440Z,17.80
2023-05-12T23:45:07.173Z,17.80
2023-05-12T23:47:34.457Z,17.80
2023-05-12T23:50:01.792Z,17.80
2023-05-12T23:52:28.779Z,17.80
2023-05-12T23:54:55.722Z,17.70
2023-05-12T23:57:22.709Z,17.70
2023-05-12T23:59:49.824Z,17.70
